sensor_id;sensor_type;location;lat;lon;timestamp;pressure;altitude;pressure_sealevel;temperature
31921;BMP280;66485;52.128;4.436;2023-03-16T00:02:01;101746.09;;;17.30
31921;BMP280;66485;52.128;4.436;2023-03-16T00:04:26;101735.28;;;17.30
31921;BMP280;66485;52.128;4.436;2023-03-16T00:06:51;101735.28;;;17.30
31921;BMP280;66485;52.128;4.436;2023-03-16T00:09:17;101740.66;;;17.19
31921;BMP280;66485;52.128;4.436;2023-03-16T00:11:42;101734.06;;;17.13
31921;BMP280;66485;52.128;4.436;2023-03-16T00:14:07;101737.94;;;17.12
31921;BMP280;66485;52.128;4.436;2023-03-16T00:16:33;101735.22;;;17.05
31921;BMP280;66485;52.128;4.436;2023-03-16T00:18:59;101735.22;;;17.05
31921;BMP280;66485;52.128;4.436;2023-03-16T00:21:28;101737.56;;;17.14
31921;BMP280;66485;52.128;4.436;2023-03-16T00:23:55;101737.56;;;17.14
31921;BMP280;66485;52.128;4.436;2023-03-16T00:26:20;101734.06;;;17.10
31921;BMP280;66485;52.128;4.436;2023-03-16T00:28:46;101734.06;;;17.10
31921;BMP280;66485;52.128;4.436;2023-03-16T00:31:12;101730.16;;;17.11
31921;BMP280;66485;52.128;4.436;2023-03-16T00:33:39;101713.19;;;17.14
31921;BMP280;66485;52.128;4.436;2023-03-16T00:36:07;101710.50;;;17.14
31921;BMP280;66485;52.128;4.436;2023-03-16T00:38:37;101710.50;;;17.14
31921;BMP280;66485;52.128;4.436;2023-03-16T00:41:04;101708.50;;;17.11
31921;BMP280;66485;52.128;4.436;2023-03-16T00:43:34;101708.50;;;17.11
31921;BMP280;66485;52.128;4.436;2023-03-16T00:46:13;101716.25;;;17.01
31921;BMP280;66485;52.128;4.436;2023-03-16T00:48:41;101712.78;;;17.05
31921;BMP280;66485;52.128;4.436;2023-03-16T00:51:10;101698.84;;;16.99
31921;BMP280;66485;52.128;4.436;2023-03-16T00:53:41;101692.28;;;17.03
31921;BMP280;66485;52.128;4.436;2023-03-16T00:56:07;101695.38;;;17.02
31921;BMP280;66485;52.128;4.436;2023-03-16T00:58:34;101684.16;;;17.00
31921;BMP280;66485;52.128;4.436;2023-03-16T01:01:10;101682.59;;;16.99
31921;BMP280;66485;52.128;4.436;2023-03-16T01:03:37;101676.41;;;16.98
31921;BMP280;66485;52.128;4.436;2023-03-16T01:06:05;101673.31;;;16.93
31921;BMP280;66485;52.128;4.436;2023-03-16T01:08:30;101678.34;;;16.98
31921;BMP280;66485;52.128;4.436;2023-03-16T01:11:01;101679.47;;;16.97
31921;BMP280;66485;52.128;4.436;2023-03-16T01:13:28;101670.97;;;16.95
31921;BMP280;66485;52.128;4.436;2023-03-16T01:15:53;101670.97;;;16.95
31921;BMP280;66485;52.128;4.436;2023-03-16T01:18:19;101665.19;;;16.93
31921;BMP280;66485;52.128;4.436;2023-03-16T01:20:44;101671.00;;;17.06
31921;BMP280;66485;52.128;4.436;2023-03-16T01:23:15;101662.50;;;17.11
31921;BMP280;66485;52.128;4.436;2023-03-16T01:25:41;101657.50;;;17.13
31921;BMP280;66485;52.128;4.436;2023-03-16T01:28:07;101662.13;;;17.16
31921;BMP280;66485;52.128;4.436;2023-03-16T01:30:33;101654.78;;;17.16
31921;BMP280;66485;52.128;4.436;2023-03-16T01:32:59;101649.00;;;17.18
31921;BMP280;66485;52.128;4.436;2023-03-16T01:35:25;101649.00;;;17.18
31921;BMP280;66485;52.128;4.436;2023-03-16T01:37:50;101645.88;;;17.16
31921;BMP280;66485;52.128;4.436;2023-03-16T01:40:15;101638.13;;;17.11
31921;BMP280;66485;52.128;4.436;2023-03-16T01:43:00;101636.59;;;17.10
31921;BMP280;66485;52.128;4.436;2023-03-16T01:48:27;101640.47;;;17.09
31921;BMP280;66485;52.128;4.436;2023-03-16T01:50:54;101627.31;;;17.07
31921;BMP280;66485;52.128;4.436;2023-03-16T01:53:20;101625.41;;;17.04
31921;BMP280;66485;52.128;4.436;2023-03-16T01:55:47;101620.75;;;17.05
31921;BMP280;66485;52.128;4.436;2023-03-16T01:58:14;101620.34;;;17.06
31921;BMP280;66485;52.128;4.436;2023-03-16T02:00:40;101620.34;;;17.02
31921;BMP280;66485;52.128;4.436;2023-03-16T02:03:13;101616.84;;;16.98
31921;BMP280;66485;52.128;4.436;2023-03-16T02:05:56;101616.84;;;16.98
31921;BMP280;66485;52.128;4.436;2023-03-16T02:08:24;101618.81;;;16.94
31921;BMP280;66485;52.128;4.436;2023-03-16T02:10:50;101615.72;;;16.99
31921;BMP280;66485;52.128;4.436;2023-03-16T02:13:21;101615.31;;;16.94
31921;BMP280;66485;52.128;4.436;2023-03-16T02:15:46;101605.25;;;16.91
31921;BMP280;66485;52.128;4.436;2023-03-16T02:18:13;101592.88;;;16.90
31921;BMP280;66485;52.128;4.436;2023-03-16T02:20:48;101592.09;;;16.89
31921;BMP280;66485;52.128;4.436;2023-03-16T02:23:18;101588.25;;;16.83
31921;BMP280;66485;52.128;4.436;2023-03-16T02:26:14;101588.25;;;16.83
31921;BMP280;66485;52.128;4.436;2023-03-16T02:28:52;101579.34;;;16.79
31921;BMP280;66485;52.128;4.436;2023-03-16T02:31:22;101582.41;;;16.78
31921;BMP280;66485;52.128;4.436;2023-03-16T02:33:49;101582.41;;;16.78
31921;BMP280;66485;52.128;4.436;2023-03-16T02:36:17;101582.41;;;16.78
31921;BMP280;66485;52.128;4.436;2023-03-16T02:38:43;101575.09;;;16.82
31921;BMP280;66485;52.128;4.436;2023-03-16T02:41:14;101582.06;;;16.79
31921;BMP280;66485;52.128;4.436;2023-03-16T02:43:53;101575.84;;;16.79
31921;BMP280;66485;52.128;4.436;2023-03-16T02:46:22;101573.13;;;16.79
31921;BMP280;66485;52.128;4.436;2023-03-16T02:48:58;101573.13;;;16.79
31921;BMP280;66485;52.128;4.436;2023-03-16T02:51:24;101576.63;;;16.72
31921;BMP280;66485;52.128;4.436;2023-03-16T02:53:49;101576.63;;;16.72
31921;BMP280;66485;52.128;4.436;2023-03-16T02:56:15;101570.03;;;16.77
31921;BMP280;66485;52.128;4.436;2023-03-16T02:58:40;101567.34;;;16.73
31921;BMP280;66485;52.128;4.436;2023-03-16T03:01:06;101570.03;;;16.73
31921;BMP280;66485;52.128;4.436;2023-03-16T03:03:31;101576.22;;;16.77
31921;BMP280;66485;52.128;4.436;2023-03-16T03:05:58;101576.22;;;16.77
31921;BMP280;66485;52.128;4.436;2023-03-16T03:08:23;101553.81;;;16.87
31921;BMP280;66485;52.128;4.436;2023-03-16T03:10:49;101553.81;;;16.87
31921;BMP280;66485;52.128;4.436;2023-03-16T03:13:14;101557.72;;;16.93
31921;BMP280;66485;52.128;4.436;2023-03-16T03:15:39;101551.91;;;16.91
31921;BMP280;66485;52.128;4.436;2023-03-16T03:18:05;101551.91;;;16.91
31921;BMP280;66485;52.128;4.436;2023-03-16T03:20:31;101546.09;;;16.86
31921;BMP280;66485;52.128;4.436;2023-03-16T03:22:56;101540.69;;;16.89
31921;BMP280;66485;52.128;4.436;2023-03-16T03:25:21;101534.50;;;16.92
31921;BMP280;66485;52.128;4.436;2023-03-16T03:27:48;101538.38;;;16.91
31921;BMP280;66485;52.128;4.436;2023-03-16T03:30:18;101534.91;;;16.91
31921;BMP280;66485;52.128;4.436;2023-03-16T03:32:44;101524.84;;;16.84
31921;BMP280;66485;52.128;4.436;2023-03-16T03:35:12;101533.34;;;16.86
31921;BMP280;66485;52.128;4.436;2023-03-16T03:37:39;101528.31;;;16.88
31921;BMP280;66485;52.128;4.436;2023-03-16T03:40:05;101525.59;;;16.88
31921;BMP280;66485;52.128;4.436;2023-03-16T03:42:31;101518.66;;;16.87
31921;BMP280;66485;52.128;4.436;2023-03-16T03:44:56;101521.34;;;16.80
31921;BMP280;66485;52.128;4.436;2023-03-16T03:47:21;101522.13;;;16.74
31921;BMP280;66485;52.128;4.436;2023-03-16T03:49:47;101516.34;;;16.82
31921;BMP280;66485;52.128;4.436;2023-03-16T03:52:12;101515.53;;;16.78
31921;BMP280;66485;52.128;4.436;2023-03-16T03:54:38;101512.44;;;16.76
31921;BMP280;66485;52.128;4.436;2023-03-16T03:57:04;101515.16;;;16.73
31921;BMP280;66485;52.128;4.436;2023-03-16T03:59:29;101515.16;;;16.73
31921;BMP280;66485;52.128;4.436;2023-03-16T04:01:54;101516.31;;;16.75
31921;BMP280;66485;52.128;4.436;2023-03-16T04:04:20;101504.72;;;16.75
31921;BMP280;66485;52.128;4.436;2023-03-16T04:06:45;101515.53;;;16.75
31921;BMP280;66485;52.128;4.436;2023-03-16T04:09:11;101512.47;;;16.73
31921;BMP280;66485;52.128;4.436;2023-03-16T04:11:37;101512.47;;;16.73
31921;BMP280;66485;52.128;4.436;2023-03-16T04:14:02;101503.59;;;16.69
31921;BMP280;66485;52.128;4.436;2023-03-16T04:16:28;101509.34;;;16.60
31921;BMP280;66485;52.128;4.436;2023-03-16T04:18:54;101509.34;;;16.60
31921;BMP280;66485;52.128;4.436;2023-03-16T04:21:20;101502.00;;;16.57
31921;BMP280;66485;52.128;4.436;2023-03-16T04:23:47;101500.81;;;16.54
31921;BMP280;66485;52.128;4.436;2023-03-16T04:26:12;101500.44;;;16.56
31921;BMP280;66485;52.128;4.436;2023-03-16T04:28:38;101500.44;;;16.56
31921;BMP280;66485;52.128;4.436;2023-03-16T04:31:05;101488.47;;;16.50
31921;BMP280;66485;52.128;4.436;2023-03-16T04:33:32;101490.41;;;16.56
31921;BMP280;66485;52.128;4.436;2023-03-16T04:35:59;101485.38;;;16.55
31921;BMP280;66485;52.128;4.436;2023-03-16T04:38:24;101485.38;;;16.55
31921;BMP280;66485;52.128;4.436;2023-03-16T04:40:49;101482.28;;;16.53
31921;BMP280;66485;52.128;4.436;2023-03-16T04:43:15;101474.16;;;16.56
31921;BMP280;66485;52.128;4.436;2023-03-16T04:45:41;101480.78;;;16.59
31921;BMP280;66485;52.128;4.436;2023-03-16T04:48:06;101480.78;;;16.59
31921;BMP280;66485;52.128;4.436;2023-03-16T04:50:31;101467.63;;;16.61
31921;BMP280;66485;52.128;4.436;2023-03-16T04:52:57;101467.63;;;16.61
31921;BMP280;66485;52.128;4.436;2023-03-16T04:55:22;101471.13;;;16.72
31921;BMP280;66485;52.128;4.436;2023-03-16T04:57:47;101470.72;;;16.70
31921;BMP280;66485;52.128;4.436;2023-03-16T05:00:13;101463.00;;;16.58
31921;BMP280;66485;52.128;4.436;2023-03-16T05:02:46;101461.09;;;16.69
31921;BMP280;66485;52.128;4.436;2023-03-16T05:05:12;101444.84;;;16.69
31921;BMP280;66485;52.128;4.436;2023-03-16T05:07:38;101444.84;;;16.69
31921;BMP280;66485;52.128;4.436;2023-03-16T05:10:06;101444.44;;;16.74
31921;BMP280;66485;52.128;4.436;2023-03-16T05:12:32;101444.44;;;16.74
31921;BMP280;66485;52.128;4.436;2023-03-16T05:14:57;101444.44;;;16.74
31921;BMP280;66485;52.128;4.436;2023-03-16T05:17:22;101435.56;;;16.70
31921;BMP280;66485;52.128;4.436;2023-03-16T05:19:48;101434.38;;;16.75
31921;BMP280;66485;52.128;4.436;2023-03-16T05:22:14;101432.84;;;16.70
31921;BMP280;66485;52.128;4.436;2023-03-16T05:24:39;101435.16;;;16.68
31921;BMP280;66485;52.128;4.436;2023-03-16T05:27:05;101439.00;;;16.56
31921;BMP280;66485;52.128;4.436;2023-03-16T05:29:30;101439.00;;;16.56
31921;BMP280;66485;52.128;4.436;2023-03-16T05:31:56;101440.97;;;16.63
31921;BMP280;66485;52.128;4.436;2023-03-16T05:34:22;101431.69;;;16.64
31921;BMP280;66485;52.128;4.436;2023-03-16T05:36:47;101441.72;;;16.56
31921;BMP280;66485;52.128;4.436;2023-03-16T05:39:12;101441.72;;;16.56
31921;BMP280;66485;52.128;4.436;2023-03-16T05:41:38;101438.25;;;16.63
31921;BMP280;66485;52.128;4.436;2023-03-16T05:44:03;101438.25;;;16.63
31921;BMP280;66485;52.128;4.436;2023-03-16T05:46:29;101436.72;;;16.62
31921;BMP280;66485;52.128;4.436;2023-03-16T05:48:55;101437.50;;;16.59
31921;BMP280;66485;52.128;4.436;2023-03-16T05:51:20;101428.97;;;16.50
31921;BMP280;66485;52.128;4.436;2023-03-16T05:53:47;101422.44;;;16.58
31921;BMP280;66485;52.128;4.436;2023-03-16T05:56:12;101427.41;;;16.56
31921;BMP280;66485;52.128;4.436;2023-03-16T05:58:38;101434.78;;;16.48
31921;BMP280;66485;52.128;4.436;2023-03-16T06:01:03;101431.28;;;16.51
31921;BMP280;66485;52.128;4.436;2023-03-16T06:03:30;101431.28;;;16.51
31921;BMP280;66485;52.128;4.436;2023-03-16T06:05:55;101421.28;;;16.48
31921;BMP280;66485;52.128;4.436;2023-03-16T06:08:21;101425.88;;;16.51
31921;BMP280;66485;52.128;4.436;2023-03-16T06:10:46;101430.53;;;16.51
31921;BMP280;66485;52.128;4.436;2023-03-16T06:13:12;101425.09;;;16.54
31921;BMP280;66485;52.128;4.436;2023-03-16T06:15:38;101426.28;;;16.50
31921;BMP280;66485;52.128;4.436;2023-03-16T06:18:03;101421.25;;;16.52
31921;BMP280;66485;52.128;4.436;2023-03-16T06:20:28;101416.59;;;16.56
31921;BMP280;66485;52.128;4.436;2023-03-16T06:22:54;101408.50;;;16.59
31921;BMP280;66485;52.128;4.436;2023-03-16T06:25:19;101411.97;;;16.60
31921;BMP280;66485;52.128;4.436;2023-03-16T06:27:44;101410.81;;;16.64
31921;BMP280;66485;52.128;4.436;2023-03-16T06:30:11;101409.69;;;16.58
31921;BMP280;66485;52.128;4.436;2023-03-16T06:32:37;101401.94;;;16.64
31921;BMP280;66485;52.128;4.436;2023-03-16T06:35:04;101401.94;;;16.64
31921;BMP280;66485;52.128;4.436;2023-03-16T06:37:30;101397.31;;;16.61
31921;BMP280;66485;52.128;4.436;2023-03-16T06:39:55;101397.66;;;16.56
31921;BMP280;66485;52.128;4.436;2023-03-16T06:42:21;101397.66;;;16.56
31921;BMP280;66485;52.128;4.436;2023-03-16T06:44:47;101388.00;;;16.65
31921;BMP280;66485;52.128;4.436;2023-03-16T06:47:13;101382.22;;;16.67
31921;BMP280;66485;52.128;4.436;2023-03-16T06:49:38;101389.97;;;16.61
31921;BMP280;66485;52.128;4.436;2023-03-16T06:52:03;101389.97;;;16.61
31921;BMP280;66485;52.128;4.436;2023-03-16T06:54:29;101384.94;;;16.60
31921;BMP280;66485;52.128;4.436;2023-03-16T06:56:56;101394.22;;;16.59
31921;BMP280;66485;52.128;4.436;2023-03-16T06:59:22;101391.53;;;16.59
31921;BMP280;66485;52.128;4.436;2023-03-16T07:01:47;101383.00;;;16.53
31921;BMP280;66485;52.128;4.436;2023-03-16T07:04:14;101382.63;;;16.58
31921;BMP280;66485;52.128;4.436;2023-03-16T07:06:39;101386.84;;;16.56
31921;BMP280;66485;52.128;4.436;2023-03-16T07:09:05;101379.13;;;16.54
31921;BMP280;66485;52.128;4.436;2023-03-16T07:11:31;101376.03;;;16.49
31921;BMP280;66485;52.128;4.436;2023-03-16T07:13:56;101373.34;;;16.56
31921;BMP280;66485;52.128;4.436;2023-03-16T07:16:22;101377.19;;;16.55
31921;BMP280;66485;52.128;4.436;2023-03-16T07:18:47;101382.22;;;16.60
31921;BMP280;66485;52.128;4.436;2023-03-16T07:21:13;101368.34;;;16.58
31921;BMP280;66485;52.128;4.436;2023-03-16T07:23:38;101368.34;;;16.58
31921;BMP280;66485;52.128;4.436;2023-03-16T07:26:04;101376.44;;;16.72
31921;BMP280;66485;52.128;4.436;2023-03-16T07:28:32;101376.44;;;16.72
31921;BMP280;66485;52.128;4.436;2023-03-16T07:30:58;101384.56;;;16.69
31921;BMP280;66485;52.128;4.436;2023-03-16T07:33:23;101384.56;;;16.69
31921;BMP280;66485;52.128;4.436;2023-03-16T07:35:48;101383.38;;;16.73
31921;BMP280;66485;52.128;4.436;2023-03-16T07:38:14;101383.75;;;16.75
31921;BMP280;66485;52.128;4.436;2023-03-16T07:40:39;101371.03;;;16.72
31921;BMP280;66485;52.128;4.436;2023-03-16T07:43:06;101363.69;;;16.69
31921;BMP280;66485;52.128;4.436;2023-03-16T07:45:31;101379.50;;;16.67
31921;BMP280;66485;52.128;4.436;2023-03-16T07:47:56;101374.88;;;16.71
31921;BMP280;66485;52.128;4.436;2023-03-16T07:50:22;101381.88;;;16.69
31921;BMP280;66485;52.128;4.436;2023-03-16T07:52:47;101381.88;;;16.69
31921;BMP280;66485;52.128;4.436;2023-03-16T07:55:13;101394.97;;;16.66
31921;BMP280;66485;52.128;4.436;2023-03-16T07:57:39;101388.78;;;16.66
31921;BMP280;66485;52.128;4.436;2023-03-16T08:00:07;101389.56;;;16.74
31921;BMP280;66485;52.128;4.436;2023-03-16T08:02:32;101387.66;;;16.74
31921;BMP280;66485;52.128;4.436;2023-03-16T08:04:58;101386.09;;;16.66
31921;BMP280;66485;52.128;4.436;2023-03-16T08:07:24;101386.09;;;16.66
31921;BMP280;66485;52.128;4.436;2023-03-16T08:09:50;101388.78;;;16.66
31921;BMP280;66485;52.128;4.436;2023-03-16T08:12:15;101372.97;;;16.61
31921;BMP280;66485;52.128;4.436;2023-03-16T08:14:40;101376.81;;;16.67
31921;BMP280;66485;52.128;4.436;2023-03-16T08:17:06;101376.81;;;16.67
31921;BMP280;66485;52.128;4.436;2023-03-16T08:19:32;101385.31;;;16.62
31921;BMP280;66485;52.128;4.436;2023-03-16T08:21:57;101378.75;;;16.59
31921;BMP280;66485;52.128;4.436;2023-03-16T08:24:25;101378.75;;;16.59
31921;BMP280;66485;52.128;4.436;2023-03-16T08:26:51;101372.56;;;16.52
31921;BMP280;66485;52.128;4.436;2023-03-16T08:29:16;101372.56;;;16.52
31921;BMP280;66485;52.128;4.436;2023-03-16T08:31:43;101375.69;;;16.57
31921;BMP280;66485;52.128;4.436;2023-03-16T08:34:08;101371.78;;;16.55
31921;BMP280;66485;52.128;4.436;2023-03-16T08:36:35;101364.84;;;16.50
31921;BMP280;66485;52.128;4.436;2023-03-16T08:39:01;101367.53;;;16.54
31921;BMP280;66485;52.128;4.436;2023-03-16T08:41:30;101362.53;;;16.52
31921;BMP280;66485;52.128;4.436;2023-03-16T08:43:57;101362.53;;;16.52
31921;BMP280;66485;52.128;4.436;2023-03-16T08:46:22;101357.88;;;16.60
31921;BMP280;66485;52.128;4.436;2023-03-16T08:48:48;101357.88;;;16.60
31921;BMP280;66485;52.128;4.436;2023-03-16T08:51:14;101355.59;;;16.58
31921;BMP280;66485;52.128;4.436;2023-03-16T08:53:39;101351.72;;;16.63
31921;BMP280;66485;52.128;4.436;2023-03-16T08:56:07;101351.72;;;16.63
31921;BMP280;66485;52.128;4.436;2023-03-16T08:58:33;101349.00;;;16.70
31921;BMP280;66485;52.128;4.436;2023-03-16T09:01:04;101357.88;;;16.74
31921;BMP280;66485;52.128;4.436;2023-03-16T09:03:30;101350.13;;;16.87
31921;BMP280;66485;52.128;4.436;2023-03-16T09:06:04;101350.13;;;16.87
31921;BMP280;66485;52.128;4.436;2023-03-16T09:08:30;101349.34;;;16.93
31921;BMP280;66485;52.128;4.436;2023-03-16T09:11:00;101349.34;;;16.93
31921;BMP280;66485;52.128;4.436;2023-03-16T09:13:26;101343.16;;;16.89
31921;BMP280;66485;52.128;4.436;2023-03-16T09:15:52;101343.16;;;16.89
31921;BMP280;66485;52.128;4.436;2023-03-16T09:18:18;101348.97;;;16.91
31921;BMP280;66485;52.128;4.436;2023-03-16T09:20:43;101352.03;;;16.97
31921;BMP280;66485;52.128;4.436;2023-03-16T09:23:12;101348.16;;;17.01
31921;BMP280;66485;52.128;4.436;2023-03-16T09:25:38;101353.56;;;17.05
31921;BMP280;66485;52.128;4.436;2023-03-16T09:28:03;101353.56;;;17.09
31921;BMP280;66485;52.128;4.436;2023-03-16T09:30:29;101349.28;;;17.08
31921;BMP280;66485;52.128;4.436;2023-03-16T09:32:54;101355.50;;;17.12
31921;BMP280;66485;52.128;4.436;2023-03-16T09:35:20;101343.09;;;17.14
31921;BMP280;66485;52.128;4.436;2023-03-16T09:37:45;101336.13;;;17.17
31921;BMP280;66485;52.128;4.436;2023-03-16T09:40:20;101335.72;;;17.25
31921;BMP280;66485;52.128;4.436;2023-03-16T09:45:44;101335.88;;;17.70
31921;BMP280;66485;52.128;4.436;2023-03-16T09:48:14;101335.88;;;17.70
31921;BMP280;66485;52.128;4.436;2023-03-16T09:50:41;101334.84;;;17.42
31921;BMP280;66485;52.128;4.436;2023-03-16T09:55:55;101337.94;;;17.41
31921;BMP280;66485;52.128;4.436;2023-03-16T09:58:23;101335.66;;;17.32
31921;BMP280;66485;52.128;4.436;2023-03-16T10:01:02;101330.66;;;17.34
31921;BMP280;66485;52.128;4.436;2023-03-16T10:06:30;101329.13;;;17.26
31921;BMP280;66485;52.128;4.436;2023-03-16T10:09:20;101329.88;;;17.30
31921;BMP280;66485;52.128;4.436;2023-03-16T10:11:52;101329.91;;;17.27
31921;BMP280;66485;52.128;4.436;2023-03-16T10:17:00;101319.03;;;17.30
31921;BMP280;66485;52.128;4.436;2023-03-16T10:22:22;101322.16;;;17.29
31921;BMP280;66485;52.128;4.436;2023-03-16T10:27:39;101312.88;;;17.30
31921;BMP280;66485;52.128;4.436;2023-03-16T10:30:17;101330.63;;;17.38
31921;BMP280;66485;52.128;4.436;2023-03-16T10:32:44;101317.81;;;17.42
31921;BMP280;66485;52.128;4.436;2023-03-16T10:40:53;101295.81;;;17.36
31921;BMP280;66485;52.128;4.436;2023-03-16T10:43:19;101295.81;;;17.36
31921;BMP280;66485;52.128;4.436;2023-03-16T10:45:44;101294.66;;;17.30
31921;BMP280;66485;52.128;4.436;2023-03-16T10:48:19;101294.66;;;17.30
31921;BMP280;66485;52.128;4.436;2023-03-16T10:50:53;101284.69;;;17.24
31921;BMP280;66485;52.128;4.436;2023-03-16T10:53:22;101285.03;;;17.26
31921;BMP280;66485;52.128;4.436;2023-03-16T10:55:56;101271.88;;;17.28
31921;BMP280;66485;52.128;4.436;2023-03-16T10:58:24;101269.94;;;17.28
31921;BMP280;66485;52.128;4.436;2023-03-16T11:00:50;101277.66;;;17.33
31921;BMP280;66485;52.128;4.436;2023-03-16T11:03:25;101272.66;;;17.28
31921;BMP280;66485;52.128;4.436;2023-03-16T11:05:59;101277.28;;;17.28
31921;BMP280;66485;52.128;4.436;2023-03-16T11:08:26;101267.28;;;17.25
31921;BMP280;66485;52.128;4.436;2023-03-16T11:10:56;101271.16;;;17.24
31921;BMP280;66485;52.128;4.436;2023-03-16T11:13:29;101267.66;;;17.23
31921;BMP280;66485;52.128;4.436;2023-03-16T11:18:53;101273.81;;;17.20
31921;BMP280;66485;52.128;4.436;2023-03-16T11:21:37;101268.84;;;17.19
31921;BMP280;66485;52.128;4.436;2023-03-16T11:24:04;101266.91;;;17.19
31921;BMP280;66485;52.128;4.436;2023-03-16T11:26:34;101266.91;;;17.19
31921;BMP280;66485;52.128;4.436;2023-03-16T11:29:21;101249.06;;;17.22
31921;BMP280;66485;52.128;4.436;2023-03-16T11:32:17;101249.47;;;17.24
31921;BMP280;66485;52.128;4.436;2023-03-16T11:34:44;101249.47;;;17.24
31921;BMP280;66485;52.128;4.436;2023-03-16T11:37:22;101253.72;;;17.21
31921;BMP280;66485;52.128;4.436;2023-03-16T11:45:46;101248.31;;;17.21
31921;BMP280;66485;52.128;4.436;2023-03-16T11:48:26;101248.31;;;17.21
31921;BMP280;66485;52.128;4.436;2023-03-16T11:56:45;101237.13;;;17.23
31921;BMP280;66485;52.128;4.436;2023-03-16T11:59:25;101241.31;;;17.27
31921;BMP280;66485;52.128;4.436;2023-03-16T12:07:38;101238.66;;;17.24
31921;BMP280;66485;52.128;4.436;2023-03-16T12:10:23;101238.66;;;17.24
31921;BMP280;66485;52.128;4.436;2023-03-16T12:16:04;101220.06;;;17.26
31921;BMP280;66485;52.128;4.436;2023-03-16T12:18:53;101212.28;;;17.35
31921;BMP280;66485;52.128;4.436;2023-03-16T12:21:33;101219.66;;;17.27
31921;BMP280;66485;52.128;4.436;2023-03-16T12:24:05;101219.66;;;17.27
31921;BMP280;66485;52.128;4.436;2023-03-16T12:26:38;101197.56;;;17.32
31921;BMP280;66485;52.128;4.436;2023-03-16T12:31:50;101179.69;;;17.49
31921;BMP280;66485;52.128;4.436;2023-03-16T12:34:33;101195.91;;;17.53
31921;BMP280;66485;52.128;4.436;2023-03-16T12:39:53;101187.38;;;17.54
31921;BMP280;66485;52.128;4.436;2023-03-16T12:48:08;101169.59;;;17.53
31921;BMP280;66485;52.128;4.436;2023-03-16T12:50:47;101163.41;;;17.53
31921;BMP280;66485;52.128;4.436;2023-03-16T12:56:10;101166.53;;;17.48
31921;BMP280;66485;52.128;4.436;2023-03-16T12:58:41;101156.78;;;17.57
31921;BMP280;66485;52.128;4.436;2023-03-16T13:01:09;101156.78;;;17.57
31921;BMP280;66485;52.128;4.436;2023-03-16T13:03:36;101149.47;;;17.54
31921;BMP280;66485;52.128;4.436;2023-03-16T13:06:02;101152.91;;;17.58
31921;BMP280;66485;52.128;4.436;2023-03-16T13:08:39;101149.47;;;17.54
31921;BMP280;66485;52.128;4.436;2023-03-16T13:11:08;101148.66;;;17.57
31921;BMP280;66485;52.128;4.436;2023-03-16T13:13:47;101133.13;;;17.61
31921;BMP280;66485;52.128;4.436;2023-03-16T13:16:23;101133.13;;;17.61
31921;BMP280;66485;52.128;4.436;2023-03-16T13:18:51;101131.59;;;17.64
31921;BMP280;66485;52.128;4.436;2023-03-16T13:21:32;101142.03;;;17.62
31921;BMP280;66485;52.128;4.436;2023-03-16T13:24:11;101142.03;;;17.62
31921;BMP280;66485;52.128;4.436;2023-03-16T13:26:45;101142.09;;;17.58
31921;BMP280;66485;52.128;4.436;2023-03-16T13:29:31;101127.00;;;17.57
31921;BMP280;66485;52.128;4.436;2023-03-16T13:32:02;101114.22;;;17.58
31921;BMP280;66485;52.128;4.436;2023-03-16T13:34:36;101124.28;;;17.57
31921;BMP280;66485;52.128;4.436;2023-03-16T13:37:03;101123.91;;;17.59
31921;BMP280;66485;52.128;4.436;2023-03-16T13:39:30;101123.91;;;17.59
31921;BMP280;66485;52.128;4.436;2023-03-16T13:42:13;101118.81;;;17.61
31921;BMP280;66485;52.128;4.436;2023-03-16T13:44:41;101118.81;;;17.61
31921;BMP280;66485;52.128;4.436;2023-03-16T13:47:11;101119.59;;;17.61
31921;BMP280;66485;52.128;4.436;2023-03-16T13:49:44;101119.59;;;17.61
31921;BMP280;66485;52.128;4.436;2023-03-16T13:52:20;101113.84;;;17.56
31921;BMP280;66485;52.128;4.436;2023-03-16T13:54:48;101107.66;;;17.59
31921;BMP280;66485;52.128;4.436;2023-03-16T13:57:18;101107.66;;;17.59
31921;BMP280;66485;52.128;4.436;2023-03-16T13:59:44;101085.22;;;17.58
31921;BMP280;66485;52.128;4.436;2023-03-16T14:02:16;101083.63;;;17.61
31921;BMP280;66485;52.128;4.436;2023-03-16T14:04:42;101083.63;;;17.61
31921;BMP280;66485;52.128;4.436;2023-03-16T14:07:19;101082.50;;;17.58
31921;BMP280;66485;52.128;4.436;2023-03-16T14:09:45;101081.34;;;17.59
31921;BMP280;66485;52.128;4.436;2023-03-16T14:12:18;101081.34;;;17.59
31921;BMP280;66485;52.128;4.436;2023-03-16T14:14:49;101079.34;;;17.63
31921;BMP280;66485;52.128;4.436;2023-03-16T14:17:19;101078.19;;;17.64
31921;BMP280;66485;52.128;4.436;2023-03-16T14:19:49;101080.50;;;17.66
31921;BMP280;66485;52.128;4.436;2023-03-16T14:22:21;101085.09;;;17.65
31921;BMP280;66485;52.128;4.436;2023-03-16T14:24:53;101085.09;;;17.65
31921;BMP280;66485;52.128;4.436;2023-03-16T14:29:53;101074.28;;;17.65
31921;BMP280;66485;52.128;4.436;2023-03-16T14:32:22;101079.69;;;17.65
31921;BMP280;66485;52.128;4.436;2023-03-16T14:34:52;101068.84;;;17.65
31921;BMP280;66485;52.128;4.436;2023-03-16T14:37:18;101078.94;;;17.68
31921;BMP280;66485;52.128;4.436;2023-03-16T14:39:56;101064.22;;;17.69
31921;BMP280;66485;52.128;4.436;2023-03-16T14:42:31;101057.97;;;17.72
31921;BMP280;66485;52.128;4.436;2023-03-16T14:44:58;101047.06;;;17.79
31921;BMP280;66485;52.128;4.436;2023-03-16T14:47:28;101050.06;;;17.85
31921;BMP280;66485;52.128;4.436;2023-03-16T14:50:02;101050.06;;;17.85
31921;BMP280;66485;52.128;4.436;2023-03-16T14:52:31;101026.28;;;18.03
31921;BMP280;66485;52.128;4.436;2023-03-16T14:54:58;101031.34;;;18.28
31921;BMP280;66485;52.128;4.436;2023-03-16T14:57:24;101032.88;;;18.60
31921;BMP280;66485;52.128;4.436;2023-03-16T14:59:51;101031.00;;;18.80
31921;BMP280;66485;52.128;4.436;2023-03-16T15:02:37;101029.66;;;18.91
31921;BMP280;66485;52.128;4.436;2023-03-16T15:05:03;101028.53;;;18.89
31921;BMP280;66485;52.128;4.436;2023-03-16T15:07:32;101032.09;;;18.86
31921;BMP280;66485;52.128;4.436;2023-03-16T15:10:02;101028.03;;;18.71